Time;durP1;ratioP1;P1;durP2;ratioP2;P2;SDS_P1;SDS_P2;PMS_P1;PMS_P2;Temp;Humidity;BMP_temperature;BMP_pressure;BME280_temperature;BME280_humidity;BME280_pressure;Samples;Min_cycle;Max_cycle;Signal;HPM_P1;HPM_P2
2021/07/25 00:00:50;;;;;;;2.27;1.43;;;18.30;99.90;;;;;;6249773;23;20642;-75
2021/07/25 00:03:16;;;;;;;2.47;1.47;;;18.10;99.90;;;;;;6250049;23;20180;-76
2021/07/25 00:05:45;;;;;;;3.83;2.00;;;17.90;99.90;;;;;;6249416;23;20203;-76
2021/07/25 00:08:12;;;;;;;2.83;1.63;;;17.80;99.90;;;;;;6249536;22;20250;-76
2021/07/25 00:10:41;;;;;;;4.47;1.53;;;17.80;99.90;;;;;;6248343;23;20183;-76
2021/07/25 00:13:08;;;;;;;4.73;1.67;;;17.80;99.90;;;;;;6247594;23;20182;-76
2021/07/25 00:15:34;;;;;;;2.20;1.80;;;17.70;99.90;;;;;;6247261;23;20180;-76
2021/07/25 00:18:01;;;;;;;3.93;1.30;;;17.80;99.90;;;;;;6247632;22;20196;-76
2021/07/25 00:20:28;;;;;;;4.10;1.57;;;17.80;99.90;;;;;;6247135;22;20195;-76
2021/07/25 00:22:57;;;;;;;2.07;1.30;;;17.90;99.90;;;;;;6247648;23;20399;-76
2021/07/25 00:25:23;;;;;;;4.97;1.50;;;17.80;99.90;;;;;;6247249;23;20203;-76
2021/07/25 00:27:54;;;;;;;3.17;2.00;;;17.90;99.90;;;;;;6247612;22;20196;-76
2021/07/25 00:30:22;;;;;;;2.83;1.53;;;17.90;99.90;;;;;;6247359;23;20495;-76
2021/07/25 00:32:50;;;;;;;4.90;2.07;;;17.90;99.90;;;;;;6247129;23;20179;-76
2021/07/25 00:35:18;;;;;;;3.60;1.77;;;17.90;99.90;;;;;;6246706;23;20623;-76
2021/07/25 00:37:47;;;;;;;2.77;1.50;;;17.90;99.90;;;;;;6246812;22;20196;-76
2021/07/25 00:40:24;;;;;;;2.70;1.73;;;18.00;99.90;;;;;;6246943;23;20264;-76
2021/07/25 00:42:51;;;;;;;3.33;1.60;;;17.90;99.90;;;;;;6246747;23;20197;-77
2021/07/25 00:45:18;;;;;;;3.37;1.50;;;17.90;99.90;;;;;;6247325;23;20231;-76
2021/07/25 00:47:47;;;;;;;2.70;1.47;;;17.80;99.90;;;;;;6246843;22;20275;-76
2021/07/25 00:50:15;;;;;;;2.87;1.33;;;17.70;99.90;;;;;;6247337;23;20182;-76
2021/07/25 00:52:42;;;;;;;2.17;1.37;;;17.70;99.90;;;;;;6246903;23;20187;-76
2021/07/25 00:55:10;;;;;;;2.20;1.50;;;17.80;99.90;;;;;;6247387;23;20180;-76
2021/07/25 00:57:38;;;;;;;4.07;1.57;;;17.70;99.90;;;;;;6246985;22;20299;-76
2021/07/25 01:00:07;;;;;;;3.87;1.60;;;17.80;99.90;;;;;;6246738;23;20175;-76
2021/07/25 01:02:42;;;;;;;2.70;1.37;;;17.80;99.90;;;;;;6246544;23;20241;-76
2021/07/25 01:05:14;;;;;;;2.77;1.77;;;17.80;99.90;;;;;;6247001;23;20225;-76
2021/07/25 01:07:50;;;;;;;2.93;1.67;;;17.80;99.90;;;;;;6246781;22;20202;-76
2021/07/25 01:10:20;;;;;;;2.87;1.63;;;17.80;99.90;;;;;;6246763;23;20175;-76
2021/07/25 01:12:56;;;;;;;3.77;1.97;;;17.80;99.90;;;;;;6247392;23;20230;-76
2021/07/25 01:15:24;;;;;;;4.33;1.90;;;17.80;99.90;;;;;;6247351;23;20179;-76
2021/07/25 01:17:54;;;;;;;2.33;1.50;;;17.80;99.90;;;;;;6247065;22;20210;-76
2021/07/25 01:20:24;;;;;;;3.43;1.80;;;17.90;99.90;;;;;;6246743;22;20222;-76
2021/07/25 01:22:53;;;;;;;3.57;1.57;;;17.90;99.90;;;;;;6246360;23;20181;-76
2021/07/25 01:25:22;;;;;;;4.87;1.53;;;17.90;99.90;;;;;;6247153;23;20289;-76
2021/07/25 01:27:53;;;;;;;5.70;1.90;;;17.90;99.90;;;;;;6246226;22;20210;-76
2021/07/25 01:30:23;;;;;;;3.83;1.70;;;17.90;99.90;;;;;;6246742;23;20176;-76
2021/07/25 01:32:54;;;;;;;4.50;1.90;;;17.90;99.90;;;;;;6246620;23;20186;-76
2021/07/25 01:35:24;;;;;;;2.40;1.63;;;17.90;99.90;;;;;;6247013;23;20187;-76
2021/07/25 01:37:51;;;;;;;2.50;1.53;;;17.90;99.90;;;;;;6246850;22;20203;-76
2021/07/25 01:40:20;;;;;;;3.40;1.93;;;17.90;99.90;;;;;;6246681;23;20638;-76
2021/07/25 01:42:48;;;;;;;3.20;1.73;;;18.00;99.90;;;;;;6246457;23;20202;-76
2021/07/25 01:45:15;;;;;;;3.30;1.70;;;18.00;99.90;;;;;;6246873;23;20203;-76
2021/07/25 01:47:42;;;;;;;4.23;2.10;;;18.00;99.90;;;;;;6246605;22;20196;-77
2021/07/25 01:50:11;;;;;;;4.10;1.53;;;18.00;99.90;;;;;;6246881;23;20644;-76
2021/07/25 01:52:39;;;;;;;3.67;1.90;;;18.00;99.90;;;;;;6246364;23;20175;-77
2021/07/25 01:55:07;;;;;;;2.77;1.70;;;18.00;99.90;;;;;;6245894;23;20495;-76
2021/07/25 01:57:34;;;;;;;3.97;1.80;;;18.00;99.90;;;;;;6246583;22;20202;-76
2021/07/25 02:00:01;;;;;;;2.57;1.53;;;18.00;99.90;;;;;;6246291;23;20176;-76
2021/07/25 02:02:27;;;;;;;3.03;1.93;;;18.10;99.90;;;;;;6246211;23;20180;-76
2021/07/25 02:04:54;;;;;;;4.97;2.70;;;18.10;99.90;;;;;;6246307;23;20185;-76
2021/07/25 02:07:21;;;;;;;4.30;2.03;;;18.00;99.90;;;;;;6246283;22;20196;-76
2021/07/25 02:09:49;;;;;;;13.17;2.23;;;18.10;99.90;;;;;;6246538;23;20176;-77
2021/07/25 02:12:16;;;;;;;3.47;2.10;;;18.00;99.90;;;;;;6246365;23;20516;-76
2021/07/25 02:14:43;;;;;;;7.17;2.40;;;18.00;99.90;;;;;;6246312;23;20175;-76
2021/07/25 02:17:10;;;;;;;4.23;2.40;;;18.00;99.90;;;;;;6247100;22;20199;-76
2021/07/25 02:19:37;;;;;;;7.20;2.10;;;17.90;99.90;;;;;;6246332;23;20176;-76
2021/07/25 02:22:05;;;;;;;5.07;2.20;;;17.90;99.90;;;;;;6245910;22;20206;-76
2021/07/25 02:24:31;;;;;;;3.80;2.23;;;17.90;99.90;;;;;;6246386;23;20175;-76
2021/07/25 02:27:00;;;;;;;3.53;1.90;;;17.90;99.90;;;;;;6246237;22;20214;-76
2021/07/25 02:29:26;;;;;;;3.70;2.20;;;17.80;99.90;;;;;;6246593;23;20175;-76
2021/07/25 02:31:54;;;;;;;3.27;1.83;;;18.00;99.90;;;;;;6246182;23;20182;-77
2021/07/25 02:34:21;;;;;;;5.77;2.17;;;18.00;99.90;;;;;;6246317;23;20179;-76
2021/07/25 02:36:47;;;;;;;4.83;1.90;;;18.00;99.90;;;;;;6246346;22;20175;-76
2021/07/25 02:39:14;;;;;;;4.60;2.00;;;18.00;99.90;;;;;;6246162;23;20498;-76
2021/07/25 02:41:41;;;;;;;3.10;1.90;;;18.10;99.90;;;;;;6246217;23;20494;-76
2021/07/25 02:44:09;;;;;;;3.60;2.07;;;18.00;99.90;;;;;;6246404;23;20491;-76
2021/07/25 02:46:36;;;;;;;4.00;2.27;;;17.90;99.90;;;;;;6246211;23;20207;-76
2021/07/25 02:49:03;;;;;;;4.67;1.77;;;17.90;99.90;;;;;;6245662;22;20202;-76
2021/07/25 02:51:30;;;;;;;3.97;2.23;;;17.90;99.90;;;;;;6245829;23;20186;-76
2021/07/25 02:53:57;;;;;;;3.93;2.30;;;17.80;99.90;;;;;;6246137;23;20575;-76
2021/07/25 02:56:24;;;;;;;4.37;2.10;;;17.80;99.90;;;;;;6245683;23;20186;-76
2021/07/25 02:58:51;;;;;;;5.80;2.40;;;17.80;99.90;;;;;;6245834;22;20522;-76
2021/07/25 03:01:19;;;;;;;5.83;2.27;;;17.70;99.90;;;;;;6245488;23;20262;-76
2021/07/25 03:03:46;;;;;;;3.10;2.00;;;17.70;99.90;;;;;;6246124;23;20183;-77
2021/07/25 03:06:13;;;;;;;4.00;2.17;;;17.70;99.90;;;;;;6246133;23;20526;-76
2021/07/25 03:08:39;;;;;;;5.27;2.30;;;17.70;99.90;;;;;;6245532;22;20202;-76
2021/07/25 03:11:10;;;;;;;4.00;2.40;;;17.70;99.90;;;;;;6245776;23;20176;-76
2021/07/25 03:13:37;;;;;;;3.80;2.00;;;17.70;99.90;;;;;;6245681;23;20197;-76
2021/07/25 03:16:05;;;;;;;3.93;2.13;;;17.80;99.90;;;;;;6246230;23;20490;-76
2021/07/25 03:18:33;;;;;;;3.53;2.00;;;17.80;99.90;;;;;;6245439;22;20207;-76
2021/07/25 03:21:00;;;;;;;5.33;2.00;;;17.80;99.90;;;;;;6245531;23;20188;-76
2021/07/25 03:23:28;;;;;;;3.63;2.30;;;17.80;99.90;;;;;;6245871;23;20263;-76
2021/07/25 03:25:54;;;;;;;4.83;2.27;;;17.70;99.90;;;;;;6245572;23;20206;-76
2021/07/25 03:28:21;;;;;;;3.33;2.00;;;17.60;99.90;;;;;;6245918;22;20196;-76
2021/07/25 03:30:48;;;;;;;5.23;2.40;;;17.50;99.90;;;;;;6245657;23;20503;-76
2021/07/25 03:33:16;;;;;;;3.37;2.10;;;17.50;99.90;;;;;;6245612;23;20179;-76
2021/07/25 03:35:44;;;;;;;3.20;2.10;;;17.50;99.90;;;;;;6245996;23;20179;-76
2021/07/25 03:38:11;;;;;;;4.00;2.03;;;17.50;99.90;;;;;;6245824;22;20253;-76
2021/07/25 03:40:40;;;;;;;3.17;1.90;;;17.40;99.90;;;;;;6246140;23;20176;-77
2021/07/25 03:43:07;;;;;;;4.47;2.37;;;17.40;99.90;;;;;;6245925;23;20179;-75
2021/07/25 03:45:34;;;;;;;4.00;2.07;;;17.40;99.90;;;;;;6245977;23;20182;-76
2021/07/25 03:48:01;;;;;;;3.00;2.20;;;17.40;99.90;;;;;;6245253;22;20199;-76
2021/07/25 03:50:28;;;;;;;3.20;2.10;;;17.40;99.90;;;;;;6245823;23;20198;-76
2021/07/25 03:52:56;;;;;;;5.43;2.20;;;17.30;99.90;;;;;;6245650;23;20175;-76
2021/07/25 03:55:23;;;;;;;4.33;2.63;;;17.30;99.90;;;;;;6245634;23;20186;-76
2021/07/25 03:57:52;;;;;;;2.87;1.80;;;17.30;99.90;;;;;;6245216;22;20211;-76
2021/07/25 04:00:19;;;;;;;4.70;2.40;;;17.20;99.90;;;;;;6245606;23;20241;-76
2021/07/25 04:02:46;;;;;;;3.20;2.10;;;17.20;99.90;;;;;;6245311;23;20179;-76
2021/07/25 04:05:13;;;;;;;5.20;2.13;;;17.30;99.90;;;;;;6246009;23;20629;-76
2021/07/25 04:07:40;;;;;;;3.67;1.93;;;17.40;99.90;;;;;;6245344;22;20218;-76
2021/07/25 04:10:09;;;;;;;5.50;2.33;;;17.40;99.90;;;;;;6245512;23;20183;-76
2021/07/25 04:12:36;;;;;;;3.00;1.97;;;17.30;99.90;;;;;;6245871;23;20502;-76
2021/07/25 04:15:04;;;;;;;5.47;2.23;;;17.20;99.90;;;;;;6245623;23;20175;-76
2021/07/25 04:17:34;;;;;;;6.37;2.27;;;17.20;99.90;;;;;;6244883;22;20712;-76
2021/07/25 04:20:00;;;;;;;3.57;2.23;;;17.20;99.90;;;;;;6245220;23;20179;-76
2021/07/25 04:22:31;;;;;;;5.67;2.40;;;17.00;99.90;;;;;;6245472;23;20202;-76
2021/07/25 04:24:58;;;;;;;3.97;2.07;;;16.90;99.90;;;;;;6245202;23;20496;-76
2021/07/25 04:27:27;;;;;;;3.07;2.10;;;17.00;99.90;;;;;;6245328;22;20222;-76
2021/07/25 04:29:55;;;;;;;4.20;1.93;;;17.10;99.90;;;;;;6245416;23;20179;-76
2021/07/25 04:32:22;;;;;;;2.90;2.03;;;17.20;99.90;;;;;;6245970;23;20234;-76
2021/07/25 04:34:49;;;;;;;3.47;1.97;;;17.20;99.90;;;;;;6245137;23;20187;-76
2021/07/25 04:37:23;;;;;;;4.43;2.17;;;17.30;99.90;;;;;;6246247;22;20195;-76
2021/07/25 04:39:51;;;;;;;4.03;2.80;;;17.30;99.90;;;;;;6247489;23;20176;-76
2021/07/25 04:42:21;;;;;;;4.47;1.80;;;17.30;99.90;;;;;;6247739;23;20181;-76
2021/07/25 04:44:58;;;;;;;7.90;2.57;;;17.40;99.90;;;;;;6246771;23;20494;-76
2021/07/25 04:47:34;;;;;;;2.43;1.80;;;17.40;99.90;;;;;;6246197;22;20661;-76
2021/07/25 04:50:05;;;;;;;5.40;1.90;;;17.50;99.90;;;;;;6247049;23;20233;-76
2021/07/25 04:52:37;;;;;;;3.47;2.00;;;17.70;99.90;;;;;;6247162;23;20205;-76
2021/07/25 04:55:07;;;;;;;4.80;1.80;;;17.80;99.90;;;;;;6247048;23;20718;-76
2021/07/25 04:57:39;;;;;;;2.30;1.70;;;18.00;99.90;;;;;;6247322;22;20195;-76
2021/07/25 05:00:09;;;;;;;4.77;2.07;;;18.20;99.90;;;;;;6246733;23;20175;-76
2021/07/25 05:02:38;;;;;;;3.50;1.47;;;18.40;99.90;;;;;;6246596;23;20631;-76
2021/07/25 05:05:06;;;;;;;3.67;1.93;;;18.90;99.90;;;;;;6247076;23;20182;-76
2021/07/25 05:07:38;;;;;;;5.88;1.67;;;19.40;99.90;;;;;;6246850;22;20215;-76
2021/07/25 05:10:06;;;;;;;3.83;1.77;;;19.60;99.90;;;;;;6246323;23;20175;-76
2021/07/25 05:12:37;;;;;;;2.50;1.30;;;19.60;99.90;;;;;;6246138;23;20511;-76
2021/07/25 05:15:05;;;;;;;3.83;1.98;;;19.50;99.90;;;;;;6245961;23;20186;-76
2021/07/25 05:17:41;;;;;;;4.25;1.60;;;19.50;99.90;;;;;;6246608;22;20222;-76
2021/07/25 05:20:14;;;;;;;3.33;1.58;;;19.50;99.90;;;;;;6246795;23;20183;-76
2021/07/25 05:22:46;;;;;;;1.80;1.20;;;20.10;99.90;;;;;;6246236;23;20629;-76
2021/07/25 05:25:17;;;;;;;3.10;1.48;;;20.90;99.90;;;;;;6246230;23;20175;-77
2021/07/25 05:27:46;;;;;;;2.00;1.20;;;21.60;99.90;;;;;;6246093;22;20218;-77
2021/07/25 05:30:15;;;;;;;4.07;1.40;;;21.80;99.90;;;;;;6246482;23;20242;-76
2021/07/25 05:32:43;;;;;;;2.10;1.40;;;21.80;99.90;;;;;;6246313;23;20182;-76
2021/07/25 05:35:10;;;;;;;2.72;1.10;;;22.00;99.90;;;;;;6245764;23;20175;-76
2021/07/25 05:37:38;;;;;;;2.40;1.63;;;22.40;99.90;;;;;;6245978;22;20195;-76
2021/07/25 05:40:06;;;;;;;4.63;1.60;;;22.40;99.90;;;;;;6245395;23;20186;-76
2021/07/25 05:42:33;;;;;;;2.75;1.40;;;22.50;99.90;;;;;;6245417;23;20656;-77
2021/07/25 05:45:00;;;;;;;3.58;1.45;;;23.10;99.90;;;;;;6244253;23;20182;-76
2021/07/25 05:47:26;;;;;;;2.50;1.52;;;24.00;99.90;;;;;;6245222;22;20211;-77
2021/07/25 05:49:55;;;;;;;3.80;1.52;;;24.90;99.90;;;;;;6246312;23;20182;-77
2021/07/25 05:52:21;;;;;;;3.65;1.55;;;25.30;99.90;;;;;;6245631;23;20186;-77
2021/07/25 05:54:48;;;;;;;3.90;1.45;;;26.20;99.90;;;;;;6245975;23;20502;-77
2021/07/25 05:57:15;;;;;;;2.67;1.30;;;26.80;99.90;;;;;;6246204;22;20199;-77
2021/07/25 05:59:42;;;;;;;1.90;1.05;;;27.50;99.90;;;;;;6246547;23;20179;-77
2021/07/25 06:02:10;;;;;;;3.35;1.60;;;28.10;99.90;;;;;;6246441;23;20176;-75
2021/07/25 06:04:37;;;;;;;3.45;1.40;;;28.70;99.90;;;;;;6246376;23;20240;-75
2021/07/25 06:07:05;;;;;;;9.05;1.98;;;29.00;99.90;;;;;;6245589;22;20203;-75
2021/07/25 06:09:32;;;;;;;2.80;1.58;;;29.30;99.90;;;;;;6245662;23;20188;-75
2021/07/25 06:11:59;;;;;;;2.35;1.48;;;29.30;99.90;;;;;;6245930;23;20176;-75
2021/07/25 06:14:25;;;;;;;1.85;1.50;;;29.60;99.90;;;;;;6245149;23;20180;-75
2021/07/25 06:16:56;;;;;;;4.88;1.30;;;29.60;99.90;;;;;;6245870;22;20184;-75
2021/07/25 06:19:23;;;;;;;2.92;1.55;;;29.80;99.90;;;;;;6245909;23;20186;-76
2021/07/25 06:21:50;;;;;;;2.88;1.33;;;29.90;99.90;;;;;;6245878;22;20183;-76
2021/07/25 06:24:18;;;;;;;4.45;1.40;;;30.10;99.90;;;;;;6246512;23;20176;-75
2021/07/25 06:26:45;;;;;;;5.53;2.30;;;29.90;99.90;;;;;;6246296;23;20199;-78
2021/07/25 06:29:11;;;;;;;4.82;1.85;;;30.00;99.90;;;;;;6246494;23;20326;-77
2021/07/25 06:31:38;;;;;;;1.60;1.08;;;29.80;99.90;;;;;;6246700;23;20499;-75
2021/07/25 06:34:05;;;;;;;3.97;1.35;;;29.80;99.90;;;;;;6245142;23;20502;-76
2021/07/25 06:36:33;;;;;;;2.22;1.20;;;29.70;99.90;;;;;;6245276;23;20184;-76
2021/07/25 06:39:00;;;;;;;3.00;1.60;;;29.90;99.90;;;;;;6245924;22;20206;-79
2021/07/25 06:41:28;;;;;;;2.30;1.27;;;30.20;99.90;;;;;;6245244;23;20186;-76
2021/07/25 06:43:55;;;;;;;3.28;1.20;;;30.40;99.90;;;;;;6246043;23;20182;-76
2021/07/25 06:46:22;;;;;;;2.60;1.30;;;30.70;99.90;;;;;;6245406;23;20180;-76
2021/07/25 06:48:48;;;;;;;2.72;1.10;;;30.20;99.90;;;;;;6245383;22;20195;-77
2021/07/25 06:51:15;;;;;;;2.83;1.40;;;29.60;99.90;;;;;;6245400;23;20194;-76
2021/07/25 06:53:43;;;;;;;2.22;1.27;;;28.50;99.90;;;;;;6246081;23;20175;-76
2021/07/25 06:56:10;;;;;;;2.78;1.10;;;28.20;99.90;;;;;;6245272;23;20180;-74
2021/07/25 06:58:38;;;;;;;4.68;1.17;;;28.60;99.90;;;;;;6245624;22;20226;-76
2021/07/25 07:01:05;;;;;;;1.90;1.05;;;29.50;99.90;;;;;;6247504;23;20225;-76
2021/07/25 07:03:32;;;;;;;2.03;1.15;;;29.50;99.90;;;;;;6246912;23;20615;-77
2021/07/25 07:05:59;;;;;;;3.53;1.30;;;29.40;99.90;;;;;;6247119;23;20234;-76
2021/07/25 07:08:25;;;;;;;3.15;1.35;;;30.10;99.90;;;;;;6246120;22;20211;-77
2021/07/25 07:10:52;;;;;;;2.85;1.00;;;30.40;99.90;;;;;;6246774;23;20203;-77
2021/07/25 07:13:21;;;;;;;2.72;1.27;;;30.10;99.90;;;;;;6246378;23;20176;-78
2021/07/25 07:15:49;;;;;;;2.55;1.40;;;29.40;99.90;;;;;;6246158;23;20207;-78
2021/07/25 07:18:17;;;;;;;4.30;1.35;;;29.40;99.90;;;;;;6245834;22;20199;-78
2021/07/25 07:20:45;;;;;;;2.08;1.40;;;29.50;99.90;;;;;;6245211;22;20190;-77
2021/07/25 07:23:14;;;;;;;2.83;1.33;;;29.50;99.90;;;;;;6246509;23;20176;-78
2021/07/25 07:25:45;;;;;;;2.88;1.08;;;29.80;99.90;;;;;;6246545;23;20176;-75
2021/07/25 07:28:13;;;;;;;2.30;1.90;;;29.60;99.90;;;;;;6245906;22;20214;-76
2021/07/25 07:30:41;;;;;;;2.47;1.42;;;29.60;99.90;;;;;;6246041;23;20206;-78
2021/07/25 07:33:11;;;;;;;4.20;1.38;;;29.70;99.90;;;;;;6246005;23;20270;-78
2021/07/25 07:35:39;;;;;;;3.60;1.40;;;30.10;99.90;;;;;;6245490;23;20182;-78
2021/07/25 07:38:07;;;;;;;4.13;1.17;;;30.60;99.90;;;;;;6245759;22;20196;-78
2021/07/25 07:40:34;;;;;;;2.25;1.30;;;30.40;99.90;;;;;;6245635;23;20184;-78
2021/07/25 07:43:02;;;;;;;3.10;1.38;;;30.20;99.90;;;;;;6245879;23;20225;-76
2021/07/25 07:45:30;;;;;;;2.72;1.10;;;30.50;99.90;;;;;;6245301;23;20645;-79
2021/07/25 07:47:57;;;;;;;4.75;1.50;;;30.70;99.90;;;;;;6245504;22;20207;-77
2021/07/25 07:50:25;;;;;;;2.75;1.40;;;30.40;99.90;;;;;;6244868;23;20186;-77
2021/07/25 07:52:52;;;;;;;2.60;1.17;;;29.60;99.90;;;;;;6245126;23;20179;-77
2021/07/25 07:55:19;;;;;;;2.22;1.35;;;29.60;99.90;;;;;;6245943;23;20211;-78
2021/07/25 07:57:46;;;;;;;1.98;1.13;;;30.20;99.90;;;;;;6245309;22;20253;-80
2021/07/25 08:00:14;;;;;;;3.17;1.00;;;30.10;99.90;;;;;;6245329;23;20190;-77
2021/07/25 08:02:41;;;;;;;1.83;1.00;;;29.00;99.90;;;;;;6245733;23;20468;-76
2021/07/25 08:05:09;;;;;;;2.85;1.10;;;28.90;99.90;;;;;;6246067;23;20182;-77
2021/07/25 08:07:38;;;;;;;2.08;1.10;;;28.90;99.90;;;;;;6244840;22;20204;-78
2021/07/25 08:10:07;;;;;;;3.15;0.80;;;28.40;99.90;;;;;;6245747;23;20198;-77
2021/07/25 08:12:34;;;;;;;1.25;0.82;;;28.20;99.90;;;;;;6247780;23;20186;-76
2021/07/25 08:15:00;;;;;;;2.28;1.00;;;28.00;99.90;;;;;;6247412;23;20182;-78
2021/07/25 08:17:27;;;;;;;3.63;1.25;;;27.70;99.90;;;;;;6248377;22;20196;-78
2021/07/25 08:19:54;;;;;;;3.60;1.15;;;27.20;99.90;;;;;;6247665;23;20182;-77
2021/07/25 08:22:20;;;;;;;2.90;1.00;;;26.80;99.90;;;;;;6247512;23;20176;-77
2021/07/25 08:24:49;;;;;;;3.83;1.13;;;26.60;99.90;;;;;;6247171;23;20175;-77
2021/07/25 08:27:15;;;;;;;1.88;1.30;;;26.30;99.90;;;;;;6247101;22;20207;-77
2021/07/25 08:29:43;;;;;;;2.05;1.25;;;26.30;99.90;;;;;;6247416;23;20180;-78
2021/07/25 08:32:10;;;;;;;1.70;1.27;;;26.30;99.90;;;;;;6247645;23;20703;-78
2021/07/25 08:34:37;;;;;;;2.33;1.20;;;26.10;99.90;;;;;;6247239;23;20214;-76
2021/07/25 08:37:04;;;;;;;3.28;1.27;;;25.90;99.90;;;;;;6247011;22;20186;-77
2021/07/25 08:39:31;;;;;;;1.63;1.10;;;26.00;99.90;;;;;;6247811;23;20198;-77
2021/07/25 08:42:06;;;;;;;2.15;1.35;;;26.10;99.90;;;;;;6247340;23;20617;-77
2021/07/25 08:44:48;;;;;;;3.03;1.38;;;26.00;99.90;;;;;;6246642;23;20503;-78
2021/07/25 08:47:33;;;;;;;3.45;1.30;;;26.10;99.90;;;;;;6247477;22;20202;-77
2021/07/25 08:50:02;;;;;;;4.22;1.75;;;26.10;99.90;;;;;;6247600;23;20179;-77
2021/07/25 08:52:31;;;;;;;2.13;1.00;;;26.10;99.90;;;;;;6247237;23;20175;-77
2021/07/25 08:55:00;;;;;;;3.28;1.17;;;26.20;99.90;;;;;;6247281;23;20175;-78
2021/07/25 08:57:31;;;;;;;3.33;1.70;;;26.70;99.90;;;;;;6246710;22;20222;-78
2021/07/25 08:59:58;;;;;;;2.95;1.20;;;26.80;99.90;;;;;;6247177;23;20182;-77
2021/07/25 09:02:27;;;;;;;3.92;1.48;;;26.70;99.90;;;;;;6247286;23;20179;-77
2021/07/25 09:04:55;;;;;;;3.03;1.38;;;26.60;99.90;;;;;;6247014;23;20175;-78
2021/07/25 09:07:23;;;;;;;2.85;1.40;;;26.70;99.90;;;;;;6247101;22;20196;-78
2021/07/25 09:09:52;;;;;;;3.10;1.20;;;27.00;99.90;;;;;;6246249;23;20180;-77
2021/07/25 09:12:21;;;;;;;2.58;1.52;;;27.60;99.90;;;;;;6247575;23;20175;-80
2021/07/25 09:14:51;;;;;;;2.35;0.95;;;28.00;99.90;;;;;;6247203;23;20262;-81
2021/07/25 09:17:19;;;;;;;4.80;1.10;;;27.50;99.90;;;;;;6247123;22;20503;-79
2021/07/25 09:20:21;;;;;;;1.70;0.93;;;27.30;99.90;;;;;;6247046;23;20185;-81
2021/07/25 09:23:04;;;;;;;3.58;1.10;;;27.40;99.90;;;;;;6246498;22;20183;-78
2021/07/25 09:25:34;;;;;;;3.60;1.30;;;27.30;99.90;;;;;;6246646;22;20257;-79
2021/07/25 09:28:16;;;;;;;2.85;1.10;;;27.40;99.90;;;;;;6246824;22;20233;-77
2021/07/25 09:30:44;;;;;;;1.92;1.02;;;27.40;99.90;;;;;;6247165;22;20468;-77
2021/07/25 09:33:33;;;;;;;3.92;1.00;;;27.40;99.90;;;;;;6246491;22;20179;-75
2021/07/25 09:36:03;;;;;;;2.65;1.30;;;27.40;99.90;;;;;;6246512;22;20199;-78
2021/07/25 09:38:31;;;;;;;1.80;1.13;;;27.50;99.90;;;;;;6246288;22;20202;-77
2021/07/25 09:40:58;;;;;;;1.33;0.93;;;27.50;99.90;;;;;;6247269;22;20176;-79
2021/07/25 09:43:25;;;;;;;1.60;1.00;;;27.70;99.90;;;;;;6246834;22;20182;-78
2021/07/25 09:45:58;;;;;;;1.55;1.00;;;27.70;99.90;;;;;;6246514;22;20182;-78
2021/07/25 09:48:27;;;;;;;1.75;1.05;;;27.90;99.90;;;;;;6246883;22;20211;-77
2021/07/25 09:50:57;;;;;;;1.60;1.00;;;27.60;99.90;;;;;;6246803;22;20176;-76
2021/07/25 09:53:24;;;;;;;1.40;0.90;;;27.70;99.90;;;;;;6246448;22;20502;-78
2021/07/25 09:55:52;;;;;;;3.38;1.10;;;27.60;99.90;;;;;;6246366;22;20502;-80
2021/07/25 09:58:33;;;;;;;2.40;0.90;;;27.20;99.90;;;;;;6246835;22;20253;-77
2021/07/25 10:01:01;;;;;;;2.67;0.90;;;27.30;99.90;;;;;;6246465;22;20206;-77
2021/07/25 10:03:33;;;;;;;4.10;1.17;;;27.80;99.90;;;;;;6246817;22;20182;-78
2021/07/25 10:06:01;;;;;;;2.60;1.20;;;28.20;99.90;;;;;;6246673;22;20214;-79
2021/07/25 10:08:28;;;;;;;1.88;0.88;;;28.00;99.90;;;;;;6246193;22;20668;-78
2021/07/25 10:10:57;;;;;;;2.92;0.90;;;27.00;99.90;;;;;;6246269;23;20180;-78
2021/07/25 10:13:25;;;;;;;1.20;0.77;;;27.00;99.90;;;;;;6246277;22;20183;-79
2021/07/25 10:15:55;;;;;;;2.45;0.60;;;27.10;99.90;;;;;;6246227;22;20607;-79
2021/07/25 10:18:24;;;;;;;1.77;0.68;;;27.40;99.90;;;;;;6246120;22;20692;-78
2021/07/25 10:20:55;;;;;;;0.80;0.70;;;27.30;99.90;;;;;;6246586;22;20187;-78
2021/07/25 10:23:28;;;;;;;1.35;0.77;;;27.20;99.90;;;;;;6246076;23;20176;-78
2021/07/25 10:25:56;;;;;;;1.05;0.88;;;26.90;99.90;;;;;;6245765;23;20618;-79
2021/07/25 10:28:24;;;;;;;1.42;1.00;;;26.70;99.90;;;;;;6246544;22;20215;-77
2021/07/25 10:30:53;;;;;;;2.00;0.80;;;26.60;99.90;;;;;;6246692;23;20176;-79
2021/07/25 10:33:20;;;;;;;1.67;0.80;;;26.40;99.90;;;;;;6246437;23;20198;-78
2021/07/25 10:35:49;;;;;;;1.63;0.77;;;26.30;99.90;;;;;;6246000;23;20175;-79
2021/07/25 10:38:16;;;;;;;1.35;0.85;;;26.30;99.90;;;;;;6246357;22;20202;-78
2021/07/25 10:40:45;;;;;;;2.67;0.93;;;26.60;99.90;;;;;;6246204;23;20175;-77
2021/07/25 10:43:15;;;;;;;1.50;1.00;;;26.70;99.90;;;;;;6246179;23;20180;-77
2021/07/25 10:45:42;;;;;;;2.17;0.90;;;26.70;99.90;;;;;;6246311;23;20180;-78
2021/07/25 10:48:15;;;;;;;2.85;0.75;;;27.00;99.90;;;;;;6246029;22;20203;-78
2021/07/25 10:50:43;;;;;;;1.05;0.70;;;26.90;99.90;;;;;;6246124;23;20689;-78
2021/07/25 10:53:23;;;;;;;1.40;0.70;;;26.90;99.90;;;;;;6245928;23;20198;-76
2021/07/25 10:55:51;;;;;;;1.25;0.90;;;26.90;99.90;;;;;;6246297;23;20197;-79
2021/07/25 10:58:20;;;;;;;3.08;0.70;;;26.90;99.90;;;;;;6245786;22;20235;-79
2021/07/25 11:00:49;;;;;;;1.60;0.80;;;26.50;99.90;;;;;;6246267;23;20274;-77
2021/07/25 11:03:41;;;;;;;1.48;0.85;;;26.10;99.90;;;;;;6245962;23;20179;-77
2021/07/25 11:06:21;;;;;;;1.00;0.70;;;25.90;99.90;;;;;;6246325;23;20183;-77
2021/07/25 11:08:53;;;;;;;1.50;0.80;;;25.90;99.90;;;;;;6245599;22;20508;-79
2021/07/25 11:11:54;;;;;;;1.45;0.80;;;25.90;99.90;;;;;;6245645;23;20213;-77
2021/07/25 11:15:04;;;;;;;1.63;0.75;;;25.90;99.90;;;;;;6245817;23;20187;-79
2021/07/25 11:17:51;;;;;;;1.90;0.70;;;25.60;99.90;;;;;;6246013;22;20199;-77
2021/07/25 11:20:38;;;;;;;1.20;0.90;;;25.60;99.90;;;;;;6245222;22;20627;-81
2021/07/25 11:23:07;;;;;;;1.33;0.82;;;25.60;99.90;;;;;;6245939;23;20203;-79
2021/07/25 11:25:37;;;;;;;1.48;0.70;;;25.80;99.90;;;;;;6245450;23;20183;-79
2021/07/25 11:28:05;;;;;;;1.00;0.70;;;25.80;99.90;;;;;;6245279;22;20577;-78
2021/07/25 11:31:07;;;;;;;1.42;0.73;;;25.80;99.90;;;;;;6246097;23;20262;-79
2021/07/25 11:33:54;;;;;;;1.42;0.68;;;25.70;99.90;;;;;;6246111;23;20179;-78
2021/07/25 11:36:23;;;;;;;3.63;1.38;;;24.80;99.90;;;;;;6245851;23;20179;-77
2021/07/25 11:38:53;;;;;;;3.55;1.00;;;24.60;99.90;;;;;;6246325;22;20282;-79
2021/07/25 11:41:24;;;;;;;2.28;0.93;;;24.50;99.90;;;;;;6246086;23;20206;-78
2021/07/25 11:43:53;;;;;;;1.00;0.80;;;24.50;99.90;;;;;;6245874;23;20182;-79
2021/07/25 11:46:31;;;;;;;1.73;0.95;;;24.70;99.90;;;;;;6246466;23;20182;-80
2021/07/25 11:49:06;;;;;;;1.58;1.00;;;25.10;99.90;;;;;;6247191;22;20217;-80
2021/07/25 11:51:33;;;;;;;1.77;0.93;;;25.60;99.90;;;;;;6247114;23;20605;-80
2021/07/25 11:54:00;;;;;;;1.33;0.73;;;26.20;99.90;;;;;;6248175;23;20182;-78
2021/07/25 11:56:29;;;;;;;1.05;0.70;;;26.40;99.90;;;;;;6247792;23;20175;-79
2021/07/25 11:59:03;;;;;;;2.65;1.42;;;26.80;99.90;;;;;;6247542;22;20195;-79
2021/07/25 12:01:31;;;;;;;1.58;0.88;;;26.90;99.90;;;;;;6247607;23;20186;-78
2021/07/25 12:03:57;;;;;;;0.82;0.70;;;27.10;99.90;;;;;;6247719;23;20175;-79
2021/07/25 12:06:24;;;;;;;4.60;0.90;;;27.20;99.90;;;;;;6247379;23;20180;-76
2021/07/25 12:09:07;;;;;;;1.13;0.63;;;27.00;99.90;;;;;;6247369;22;20207;-78
2021/07/25 12:11:37;;;;;;;1.73;0.90;;;26.90;99.90;;;;;;6247762;23;20189;-77
2021/07/25 12:14:04;;;;;;;3.10;0.90;;;27.20;99.90;;;;;;6247579;23;20215;-79
2021/07/25 12:16:51;;;;;;;1.88;0.90;;;27.00;99.90;;;;;;6247726;23;20238;-77
2021/07/25 12:19:19;;;;;;;1.70;0.77;;;26.80;99.90;;;;;;6247731;23;20176;-76
2021/07/25 12:21:47;;;;;;;2.17;0.88;;;26.80;99.90;;;;;;6247194;23;20193;-77
2021/07/25 12:24:27;;;;;;;2.97;1.05;;;26.90;99.90;;;;;;6247247;23;20761;-76
2021/07/25 12:26:56;;;;;;;1.08;0.70;;;26.90;99.90;;;;;;6246713;22;20514;-77
2021/07/25 12:29:38;;;;;;;2.08;1.00;;;26.80;99.90;;;;;;6247801;23;20207;-77
2021/07/25 12:32:28;;;;;;;1.25;0.75;;;26.40;99.90;;;;;;6247251;23;20175;-76
2021/07/25 12:35:15;;;;;;;0.90;0.80;;;26.30;99.90;;;;;;6247509;23;20179;-77
2021/07/25 12:37:44;;;;;;;2.80;1.10;;;26.20;99.90;;;;;;6247065;22;20222;-79
2021/07/25 12:40:13;;;;;;;1.58;0.70;;;26.10;99.90;;;;;;6246901;23;20631;-77
2021/07/25 12:42:43;;;;;;;2.72;0.70;;;25.90;99.90;;;;;;6247712;23;20197;-79
2021/07/25 12:45:50;;;;;;;1.80;0.80;;;25.90;99.90;;;;;;6247092;23;20182;-79
2021/07/25 12:48:28;;;;;;;1.30;0.90;;;26.00;99.90;;;;;;6247195;22;20200;-79
2021/07/25 12:50:58;;;;;;;1.75;0.80;;;26.50;99.90;;;;;;6247389;23;20175;-78
2021/07/25 12:53:37;;;;;;;2.20;0.70;;;26.60;99.90;;;;;;6247469;23;20175;-77
2021/07/25 12:56:05;;;;;;;1.55;0.88;;;26.70;99.90;;;;;;6247468;23;20182;-79
2021/07/25 12:58:35;;;;;;;3.28;1.10;;;26.80;99.90;;;;;;6246967;22;20587;-77
2021/07/25 13:03:56;;;;;;;1.65;1.05;;;26.50;99.90;;;;;;6247062;23;20176;-76